Flight Track Log - Related Links

Times and Time Zones

All times are in EDT time to prevent confusion due to time zone crossing. See the CTL18 flight status page for this flight to view local times or setup timezone preferences in your user account.

Time Position Orientation Groundspeed Altitude Reporting Facility
EDT Latitude Longitude Course Direction KTS MPH feet Rate Location/Type
Mon 07:09:21 PM 42.6622 -83.4464 26° Northeast 116 133 1,400  Level Cleveland Center
Mon 07:11:00 PM 42.7146 -83.4122 26° Northeast  Level FlightAware Approximate
Mon 07:18:00 PM 42.9470 -83.4183 321° Northwest  Level FlightAware Approximate
Mon 07:19:00 PM 42.9744 -83.4484 321° Northwest  Level FlightAware Approximate
Mon 07:20:00 PM 43.0018 -83.4786 321° Northwest  Level FlightAware Approximate
Mon 07:21:00 PM 43.0291 -83.5088 321° Northwest  Level FlightAware Approximate
Mon 07:22:00 PM 43.0565 -83.5390 321° Northwest  Level FlightAware Approximate
Mon 07:23:00 PM 43.0839 -83.5693 321° Northwest  Level FlightAware Approximate
Mon 07:24:00 PM 43.1112 -83.5996 321° Northwest  Level FlightAware Approximate
Mon 07:25:00 PM 43.1386 -83.6299 321° Northwest  Level FlightAware Approximate
Mon 07:26:00 PM 43.1659 -83.6603 321° Northwest  Level FlightAware Approximate
Mon 07:27:00 PM 43.1933 -83.6906 321° Northwest  Level FlightAware Approximate
Mon 07:28:00 PM 43.2204 -83.7213 318° Northwest  Level FlightAware Approximate
Mon 07:29:00 PM 43.2467 -83.7533 318° Northwest  Level FlightAware Approximate
Mon 07:30:00 PM 43.2730 -83.7854 318° Northwest  Level FlightAware Approximate
Mon 07:31:00 PM 43.2993 -83.8175 318° Northwest  Level FlightAware Approximate
Mon 07:32:00 PM 43.3256 -83.8497 318° Northwest  Level FlightAware Approximate
Mon 07:33:00 PM 43.3519 -83.8819 318° Northwest  Level FlightAware Approximate
Mon 07:34:00 PM 43.3791 -83.9124 324° Northwest  Level FlightAware Approximate
Mon 07:35:00 PM 43.4076 -83.9408 324° Northwest  Level FlightAware Approximate
Mon 07:36:00 PM 43.4361 -83.9693 324° Northwest  Level FlightAware Approximate
Mon 07:37:00 PM 43.4645 -83.9978 324° Northwest  Level FlightAware Approximate
Mon 07:38:00 PM 43.4930 -84.0263 324° Northwest  Level FlightAware Approximate
Mon 07:39:00 PM 43.5150 -84.0634 305° West  Level FlightAware Approximate

Login

Don't have an account? Register now (free) for customized features, flight alerts, and more!